sensor_id;sensor_type;location;lat;lon;timestamp;temperature;humidity
569;DHT22;269;48.884;9.192;2022-09-09T00:00:19;15.50;99.90
569;DHT22;269;48.884;9.192;2022-09-09T00:02:54;15.40;99.90
569;DHT22;269;48.884;9.192;2022-09-09T00:05:31;15.50;99.90
569;DHT22;269;48.884;9.192;2022-09-09T00:08:00;15.50;99.90
569;DHT22;269;48.884;9.192;2022-09-09T00:10:32;15.50;99.90
569;DHT22;269;48.884;9.192;2022-09-09T00:13:09;15.50;99.90
569;DHT22;269;48.884;9.192;2022-09-09T00:15:50;15.40;99.90
569;DHT22;269;48.884;9.192;2022-09-09T00:18:24;15.40;99.90
569;DHT22;269;48.884;9.192;2022-09-09T00:20:55;15.40;99.90
569;DHT22;269;48.884;9.192;2022-09-09T00:23:28;15.40;99.90
569;DHT22;269;48.884;9.192;2022-09-09T00:26:04;15.40;99.90
569;DHT22;269;48.884;9.192;2022-09-09T00:28:39;15.40;99.90
569;DHT22;269;48.884;9.192;2022-09-09T00:31:12;15.40;99.90
569;DHT22;269;48.884;9.192;2022-09-09T00:33:42;15.50;99.90
569;DHT22;269;48.884;9.192;2022-09-09T00:36:13;15.50;99.90
569;DHT22;269;48.884;9.192;2022-09-09T00:38:44;15.50;99.90
569;DHT22;269;48.884;9.192;2022-09-09T00:41:19;15.50;99.90
569;DHT22;269;48.884;9.192;2022-09-09T00:43:56;15.50;99.90
569;DHT22;269;48.884;9.192;2022-09-09T00:46:41;15.50;99.90
569;DHT22;269;48.884;9.192;2022-09-09T00:49:20;15.60;99.90
569;DHT22;269;48.884;9.192;2022-09-09T00:51:59;15.60;99.90
569;DHT22;269;48.884;9.192;2022-09-09T00:54:39;15.60;99.90
569;DHT22;269;48.884;9.192;2022-09-09T00:57:25;15.70;99.90
569;DHT22;269;48.884;9.192;2022-09-09T01:00:00;15.70;99.90
569;DHT22;269;48.884;9.192;2022-09-09T01:02:37;15.80;99.90
569;DHT22;269;48.884;9.192;2022-09-09T01:05:12;15.80;99.90
569;DHT22;269;48.884;9.192;2022-09-09T01:07:44;16.00;99.90
569;DHT22;269;48.884;9.192;2022-09-09T01:10:21;15.90;99.90
569;DHT22;269;48.884;9.192;2022-09-09T01:12:52;16.00;99.90
569;DHT22;269;48.884;9.192;2022-09-09T01:15:26;16.00;99.90
569;DHT22;269;48.884;9.192;2022-09-09T01:18:02;16.00;99.90
569;DHT22;269;48.884;9.192;2022-09-09T01:20:37;16.00;99.90
569;DHT22;269;48.884;9.192;2022-09-09T01:23:26;16.00;99.90
569;DHT22;269;48.884;9.192;2022-09-09T01:28:51;16.00;99.90
569;DHT22;269;48.884;9.192;2022-09-09T01:31:22;16.10;99.90
569;DHT22;269;48.884;9.192;2022-09-09T01:33:53;16.10;99.90
569;DHT22;269;48.884;9.192;2022-09-09T01:36:26;16.10;99.90
569;DHT22;269;48.884;9.192;2022-09-09T01:38:54;16.00;99.90
569;DHT22;269;48.884;9.192;2022-09-09T01:41:23;16.00;99.90
569;DHT22;269;48.884;9.192;2022-09-09T01:43:50;16.00;99.90
569;DHT22;269;48.884;9.192;2022-09-09T01:46:18;16.00;99.90
569;DHT22;269;48.884;9.192;2022-09-09T01:48:48;16.00;99.90
569;DHT22;269;48.884;9.192;2022-09-09T01:51:15;16.00;99.90
569;DHT22;269;48.884;9.192;2022-09-09T01:53:43;16.00;99.90
569;DHT22;269;48.884;9.192;2022-09-09T01:56:20;16.00;99.90
569;DHT22;269;48.884;9.192;2022-09-09T01:59:03;16.00;99.90
569;DHT22;269;48.884;9.192;2022-09-09T02:01:44;16.00;99.90
569;DHT22;269;48.884;9.192;2022-09-09T02:04:25;16.00;99.90
569;DHT22;269;48.884;9.192;2022-09-09T02:06:56;16.00;99.90
569;DHT22;269;48.884;9.192;2022-09-09T02:09:24;16.10;99.90
569;DHT22;269;48.884;9.192;2022-09-09T02:11:59;16.10;99.90
569;DHT22;269;48.884;9.192;2022-09-09T02:14:31;16.00;99.90
569;DHT22;269;48.884;9.192;2022-09-09T02:17:05;16.10;99.90
569;DHT22;269;48.884;9.192;2022-09-09T02:19:37;16.00;99.90
569;DHT22;269;48.884;9.192;2022-09-09T02:22:05;16.10;99.90
569;DHT22;269;48.884;9.192;2022-09-09T02:24:35;16.10;99.90
569;DHT22;269;48.884;9.192;2022-09-09T02:27:06;16.10;99.90
569;DHT22;269;48.884;9.192;2022-09-09T02:29:39;16.10;99.90
569;DHT22;269;48.884;9.192;2022-09-09T02:32:10;16.10;99.90
569;DHT22;269;48.884;9.192;2022-09-09T02:34:42;16.10;99.90
569;DHT22;269;48.884;9.192;2022-09-09T02:37:11;16.20;99.90
569;DHT22;269;48.884;9.192;2022-09-09T02:39:39;16.10;99.90
569;DHT22;269;48.884;9.192;2022-09-09T02:42:06;16.20;99.90
569;DHT22;269;48.884;9.192;2022-09-09T02:44:35;16.20;99.90
569;DHT22;269;48.884;9.192;2022-09-09T02:47:21;16.20;99.90
569;DHT22;269;48.884;9.192;2022-09-09T02:49:59;16.20;99.90
569;DHT22;269;48.884;9.192;2022-09-09T02:52:36;16.20;99.90
569;DHT22;269;48.884;9.192;2022-09-09T02:55:08;16.20;99.90
569;DHT22;269;48.884;9.192;2022-09-09T02:57:39;16.20;99.90
569;DHT22;269;48.884;9.192;2022-09-09T03:00:10;16.10;99.90
569;DHT22;269;48.884;9.192;2022-09-09T03:02:37;16.10;99.90
569;DHT22;269;48.884;9.192;2022-09-09T03:05:05;16.10;99.90
569;DHT22;269;48.884;9.192;2022-09-09T03:07:33;16.00;99.90
569;DHT22;269;48.884;9.192;2022-09-09T03:10:00;15.90;99.90
569;DHT22;269;48.884;9.192;2022-09-09T03:12:27;15.90;99.90
569;DHT22;269;48.884;9.192;2022-09-09T03:14:54;15.90;99.90
569;DHT22;269;48.884;9.192;2022-09-09T03:17:23;16.00;99.90
569;DHT22;269;48.884;9.192;2022-09-09T03:19:50;15.90;99.90
569;DHT22;269;48.884;9.192;2022-09-09T03:22:18;15.80;99.90
569;DHT22;269;48.884;9.192;2022-09-09T03:24:45;15.80;99.90
569;DHT22;269;48.884;9.192;2022-09-09T03:27:12;15.70;99.90
569;DHT22;269;48.884;9.192;2022-09-09T03:29:40;15.60;99.90
569;DHT22;269;48.884;9.192;2022-09-09T03:32:07;15.60;99.90
569;DHT22;269;48.884;9.192;2022-09-09T03:34:37;15.50;99.90
569;DHT22;269;48.884;9.192;2022-09-09T03:37:06;15.30;99.90
569;DHT22;269;48.884;9.192;2022-09-09T03:39:33;15.10;99.90
569;DHT22;269;48.884;9.192;2022-09-09T03:42:00;15.00;99.90
569;DHT22;269;48.884;9.192;2022-09-09T03:44:29;14.90;99.90
569;DHT22;269;48.884;9.192;2022-09-09T03:46:56;14.90;99.90
569;DHT22;269;48.884;9.192;2022-09-09T03:49:25;14.90;99.90
569;DHT22;269;48.884;9.192;2022-09-09T03:51:55;14.90;99.90
569;DHT22;269;48.884;9.192;2022-09-09T03:54:24;14.90;99.90
569;DHT22;269;48.884;9.192;2022-09-09T03:56:51;14.90;99.90
569;DHT22;269;48.884;9.192;2022-09-09T03:59:18;14.90;99.90
569;DHT22;269;48.884;9.192;2022-09-09T04:01:47;14.90;99.90
569;DHT22;269;48.884;9.192;2022-09-09T04:04:14;15.00;99.90
569;DHT22;269;48.884;9.192;2022-09-09T04:06:41;15.00;99.90
569;DHT22;269;48.884;9.192;2022-09-09T04:09:09;15.00;99.90
569;DHT22;269;48.884;9.192;2022-09-09T04:11:36;15.10;99.90
569;DHT22;269;48.884;9.192;2022-09-09T04:14:03;15.10;99.90
569;DHT22;269;48.884;9.192;2022-09-09T04:16:32;15.10;99.90
569;DHT22;269;48.884;9.192;2022-09-09T04:18:59;15.10;99.90
569;DHT22;269;48.884;9.192;2022-09-09T04:21:27;15.10;99.90
569;DHT22;269;48.884;9.192;2022-09-09T04:23:54;15.10;99.90
569;DHT22;269;48.884;9.192;2022-09-09T04:26:22;15.10;99.90
569;DHT22;269;48.884;9.192;2022-09-09T04:28:49;15.10;99.90
569;DHT22;269;48.884;9.192;2022-09-09T04:31:18;15.10;99.90
569;DHT22;269;48.884;9.192;2022-09-09T04:33:45;15.10;99.90
569;DHT22;269;48.884;9.192;2022-09-09T04:36:13;15.10;99.90
569;DHT22;269;48.884;9.192;2022-09-09T04:38:40;15.10;99.90
569;DHT22;269;48.884;9.192;2022-09-09T04:41:07;15.10;99.90
569;DHT22;269;48.884;9.192;2022-09-09T04:43:38;15.10;99.90
569;DHT22;269;48.884;9.192;2022-09-09T04:46:06;15.10;99.90
569;DHT22;269;48.884;9.192;2022-09-09T04:48:33;15.10;99.90
569;DHT22;269;48.884;9.192;2022-09-09T04:51:01;15.10;99.90
569;DHT22;269;48.884;9.192;2022-09-09T04:53:30;15.10;99.90
569;DHT22;269;48.884;9.192;2022-09-09T04:56:02;15.10;99.90
569;DHT22;269;48.884;9.192;2022-09-09T04:58:30;15.10;99.90
569;DHT22;269;48.884;9.192;2022-09-09T05:01:05;15.20;99.90
569;DHT22;269;48.884;9.192;2022-09-09T05:03:32;15.20;99.90
569;DHT22;269;48.884;9.192;2022-09-09T05:06:04;15.20;99.90
569;DHT22;269;48.884;9.192;2022-09-09T05:08:32;15.20;99.90
569;DHT22;269;48.884;9.192;2022-09-09T05:10:59;15.20;99.90
569;DHT22;269;48.884;9.192;2022-09-09T05:13:26;15.30;99.90
569;DHT22;269;48.884;9.192;2022-09-09T05:15:54;15.30;99.90
569;DHT22;269;48.884;9.192;2022-09-09T05:18:22;15.30;99.90
569;DHT22;269;48.884;9.192;2022-09-09T05:20:49;15.40;99.90
569;DHT22;269;48.884;9.192;2022-09-09T05:23:17;15.40;99.90
569;DHT22;269;48.884;9.192;2022-09-09T05:25:44;15.40;99.90
569;DHT22;269;48.884;9.192;2022-09-09T05:28:21;15.40;99.90
569;DHT22;269;48.884;9.192;2022-09-09T05:30:55;15.40;99.90
569;DHT22;269;48.884;9.192;2022-09-09T05:33:24;15.40;99.90
569;DHT22;269;48.884;9.192;2022-09-09T05:35:56;15.50;99.90
569;DHT22;269;48.884;9.192;2022-09-09T05:38:23;15.50;99.90
569;DHT22;269;48.884;9.192;2022-09-09T05:40:51;15.60;99.90
569;DHT22;269;48.884;9.192;2022-09-09T05:43:18;15.60;99.90
569;DHT22;269;48.884;9.192;2022-09-09T05:45:47;15.60;99.90
569;DHT22;269;48.884;9.192;2022-09-09T05:48:14;15.70;99.90
569;DHT22;269;48.884;9.192;2022-09-09T05:50:43;15.70;99.90
569;DHT22;269;48.884;9.192;2022-09-09T05:53:11;15.80;99.90
569;DHT22;269;48.884;9.192;2022-09-09T05:55:38;15.90;99.90
569;DHT22;269;48.884;9.192;2022-09-09T05:58:04;15.90;99.90
569;DHT22;269;48.884;9.192;2022-09-09T06:00:32;15.80;99.90
569;DHT22;269;48.884;9.192;2022-09-09T06:02:59;15.80;99.90
569;DHT22;269;48.884;9.192;2022-09-09T06:05:26;15.90;99.90
569;DHT22;269;48.884;9.192;2022-09-09T06:07:55;15.90;99.90
569;DHT22;269;48.884;9.192;2022-09-09T06:10:22;16.00;99.90
569;DHT22;269;48.884;9.192;2022-09-09T06:12:52;16.10;99.90
569;DHT22;269;48.884;9.192;2022-09-09T06:15:20;16.20;99.90
569;DHT22;269;48.884;9.192;2022-09-09T06:17:47;16.20;99.90
569;DHT22;269;48.884;9.192;2022-09-09T06:20:15;16.40;99.90
569;DHT22;269;48.884;9.192;2022-09-09T06:22:42;16.50;99.90
569;DHT22;269;48.884;9.192;2022-09-09T06:25:13;16.60;99.90
569;DHT22;269;48.884;9.192;2022-09-09T06:27:40;16.60;99.90
569;DHT22;269;48.884;9.192;2022-09-09T06:30:09;16.60;99.90
569;DHT22;269;48.884;9.192;2022-09-09T06:32:36;16.70;99.90
569;DHT22;269;48.884;9.192;2022-09-09T06:35:05;16.70;99.90
569;DHT22;269;48.884;9.192;2022-09-09T06:37:33;16.70;99.90
569;DHT22;269;48.884;9.192;2022-09-09T06:40:00;16.60;99.90
569;DHT22;269;48.884;9.192;2022-09-09T06:42:29;16.60;99.90
569;DHT22;269;48.884;9.192;2022-09-09T06:44:57;16.60;99.90
569;DHT22;269;48.884;9.192;2022-09-09T06:47:24;16.60;99.90
569;DHT22;269;48.884;9.192;2022-09-09T06:49:53;16.60;99.90
569;DHT22;269;48.884;9.192;2022-09-09T06:52:22;16.70;99.90
569;DHT22;269;48.884;9.192;2022-09-09T06:54:50;16.70;99.90
569;DHT22;269;48.884;9.192;2022-09-09T06:57:17;16.80;99.90
569;DHT22;269;48.884;9.192;2022-09-09T06:59:45;16.90;99.90
569;DHT22;269;48.884;9.192;2022-09-09T07:02:12;17.00;99.90
569;DHT22;269;48.884;9.192;2022-09-09T07:04:40;17.10;99.90
569;DHT22;269;48.884;9.192;2022-09-09T07:07:07;17.30;99.90
569;DHT22;269;48.884;9.192;2022-09-09T07:09:35;17.40;99.90
569;DHT22;269;48.884;9.192;2022-09-09T07:12:02;17.50;99.90
569;DHT22;269;48.884;9.192;2022-09-09T07:14:31;17.60;99.90
569;DHT22;269;48.884;9.192;2022-09-09T07:17:01;17.70;99.90
569;DHT22;269;48.884;9.192;2022-09-09T07:19:27;17.80;99.90
569;DHT22;269;48.884;9.192;2022-09-09T07:21:55;18.00;99.90
569;DHT22;269;48.884;9.192;2022-09-09T07:24:21;18.10;99.90
569;DHT22;269;48.884;9.192;2022-09-09T07:26:49;18.10;99.90
569;DHT22;269;48.884;9.192;2022-09-09T07:29:17;18.30;99.90
569;DHT22;269;48.884;9.192;2022-09-09T07:31:44;18.50;99.90
569;DHT22;269;48.884;9.192;2022-09-09T07:34:13;18.50;99.90
569;DHT22;269;48.884;9.192;2022-09-09T07:36:40;18.60;99.90
569;DHT22;269;48.884;9.192;2022-09-09T07:39:09;18.70;99.90
569;DHT22;269;48.884;9.192;2022-09-09T07:41:38;18.70;99.90
569;DHT22;269;48.884;9.192;2022-09-09T07:44:07;18.80;99.90
569;DHT22;269;48.884;9.192;2022-09-09T07:46:35;18.80;99.90
569;DHT22;269;48.884;9.192;2022-09-09T07:49:03;19.00;99.90
569;DHT22;269;48.884;9.192;2022-09-09T07:51:33;19.10;99.90
569;DHT22;269;48.884;9.192;2022-09-09T07:54:02;19.20;99.90
569;DHT22;269;48.884;9.192;2022-09-09T07:56:30;19.40;99.90
569;DHT22;269;48.884;9.192;2022-09-09T07:58:58;19.20;99.90
569;DHT22;269;48.884;9.192;2022-09-09T08:01:28;19.20;99.90
569;DHT22;269;48.884;9.192;2022-09-09T08:03:57;19.50;99.90
569;DHT22;269;48.884;9.192;2022-09-09T08:06:27;20.00;99.90
569;DHT22;269;48.884;9.192;2022-09-09T08:08:56;20.70;99.90
569;DHT22;269;48.884;9.192;2022-09-09T08:11:24;21.60;99.90
569;DHT22;269;48.884;9.192;2022-09-09T08:13:52;22.30;99.90
569;DHT22;269;48.884;9.192;2022-09-09T08:16:21;22.90;99.90
569;DHT22;269;48.884;9.192;2022-09-09T08:18:48;23.50;99.90
569;DHT22;269;48.884;9.192;2022-09-09T08:21:18;24.00;99.90
569;DHT22;269;48.884;9.192;2022-09-09T08:23:47;24.00;99.90
569;DHT22;269;48.884;9.192;2022-09-09T08:26:17;23.70;99.90
569;DHT22;269;48.884;9.192;2022-09-09T08:28:45;23.60;99.90
569;DHT22;269;48.884;9.192;2022-09-09T08:31:14;23.70;99.90
569;DHT22;269;48.884;9.192;2022-09-09T08:33:43;23.50;99.90
569;DHT22;269;48.884;9.192;2022-09-09T08:36:13;23.40;99.90
569;DHT22;269;48.884;9.192;2022-09-09T08:38:41;23.50;99.90
569;DHT22;269;48.884;9.192;2022-09-09T08:41:44;23.20;99.90
569;DHT22;269;48.884;9.192;2022-09-09T08:44:19;22.70;99.90
569;DHT22;269;48.884;9.192;2022-09-09T08:46:52;22.30;99.90
569;DHT22;269;48.884;9.192;2022-09-09T08:49:41;22.50;99.90
569;DHT22;269;48.884;9.192;2022-09-09T08:52:15;22.80;99.90
569;DHT22;269;48.884;9.192;2022-09-09T08:54:44;23.30;99.90
569;DHT22;269;48.884;9.192;2022-09-09T08:57:20;23.70;99.90
569;DHT22;269;48.884;9.192;2022-09-09T08:59:49;24.10;99.90
569;DHT22;269;48.884;9.192;2022-09-09T09:02:21;24.50;99.90
569;DHT22;269;48.884;9.192;2022-09-09T09:05:00;24.70;99.90
569;DHT22;269;48.884;9.192;2022-09-09T09:07:45;24.90;99.90
569;DHT22;269;48.884;9.192;2022-09-09T09:10:29;24.50;99.90
569;DHT22;269;48.884;9.192;2022-09-09T09:13:02;23.70;99.90
569;DHT22;269;48.884;9.192;2022-09-09T09:15:33;23.60;99.80
569;DHT22;269;48.884;9.192;2022-09-09T09:18:02;23.50;98.50
569;DHT22;269;48.884;9.192;2022-09-09T09:20:34;23.30;99.20
569;DHT22;269;48.884;9.192;2022-09-09T09:23:05;23.20;98.60
569;DHT22;269;48.884;9.192;2022-09-09T09:25:35;22.80;99.60
569;DHT22;269;48.884;9.192;2022-09-09T09:28:13;22.50;99.90
569;DHT22;269;48.884;9.192;2022-09-09T09:30:48;22.10;99.50
569;DHT22;269;48.884;9.192;2022-09-09T09:33:20;21.80;99.70
569;DHT22;269;48.884;9.192;2022-09-09T09:35:49;21.60;99.90
569;DHT22;269;48.884;9.192;2022-09-09T09:38:18;21.60;99.90
569;DHT22;269;48.884;9.192;2022-09-09T09:40:51;21.50;99.90
569;DHT22;269;48.884;9.192;2022-09-09T09:43:25;21.40;99.90
569;DHT22;269;48.884;9.192;2022-09-09T09:45:53;21.30;99.90
569;DHT22;269;48.884;9.192;2022-09-09T09:48:20;21.30;99.90
569;DHT22;269;48.884;9.192;2022-09-09T09:50:49;21.80;99.90
569;DHT22;269;48.884;9.192;2022-09-09T09:53:21;22.20;99.90
569;DHT22;269;48.884;9.192;2022-09-09T09:55:53;22.70;99.90
569;DHT22;269;48.884;9.192;2022-09-09T09:58:23;23.20;99.90
569;DHT22;269;48.884;9.192;2022-09-09T10:00:52;23.20;99.90
569;DHT22;269;48.884;9.192;2022-09-09T10:03:25;23.40;99.90
569;DHT22;269;48.884;9.192;2022-09-09T10:05:53;23.60;99.90
569;DHT22;269;48.884;9.192;2022-09-09T10:08:23;23.80;99.40
569;DHT22;269;48.884;9.192;2022-09-09T10:11:09;23.90;99.10
569;DHT22;269;48.884;9.192;2022-09-09T10:13:53;23.90;98.00
569;DHT22;269;48.884;9.192;2022-09-09T10:16:45;24.20;97.10
569;DHT22;269;48.884;9.192;2022-09-09T10:19:16;24.40;96.50
569;DHT22;269;48.884;9.192;2022-09-09T10:22:02;24.50;96.40
569;DHT22;269;48.884;9.192;2022-09-09T10:24:44;24.50;96.30
569;DHT22;269;48.884;9.192;2022-09-09T10:27:19;24.70;95.30
569;DHT22;269;48.884;9.192;2022-09-09T10:30:02;25.00;94.90
569;DHT22;269;48.884;9.192;2022-09-09T10:32:40;25.40;93.50
569;DHT22;269;48.884;9.192;2022-09-09T10:35:24;25.70;93.20
569;DHT22;269;48.884;9.192;2022-09-09T10:38:10;25.70;92.60
569;DHT22;269;48.884;9.192;2022-09-09T10:40:43;25.60;93.10
569;DHT22;269;48.884;9.192;2022-09-09T10:43:30;25.70;93.30
569;DHT22;269;48.884;9.192;2022-09-09T10:46:08;25.90;91.10
569;DHT22;269;48.884;9.192;2022-09-09T10:48:50;25.60;91.40
569;DHT22;269;48.884;9.192;2022-09-09T10:51:26;25.70;92.90
569;DHT22;269;48.884;9.192;2022-09-09T10:54:13;25.80;92.90
569;DHT22;269;48.884;9.192;2022-09-09T10:56:51;25.70;92.80
569;DHT22;269;48.884;9.192;2022-09-09T10:59:23;25.50;92.80
569;DHT22;269;48.884;9.192;2022-09-09T11:01:58;25.10;93.50
569;DHT22;269;48.884;9.192;2022-09-09T11:04:31;24.70;93.90
569;DHT22;269;48.884;9.192;2022-09-09T11:07:07;24.40;94.50
569;DHT22;269;48.884;9.192;2022-09-09T11:09:39;24.10;95.00
569;DHT22;269;48.884;9.192;2022-09-09T11:12:13;23.80;97.70
569;DHT22;269;48.884;9.192;2022-09-09T11:14:43;23.50;98.70
569;DHT22;269;48.884;9.192;2022-09-09T11:17:16;23.00;99.20
569;DHT22;269;48.884;9.192;2022-09-09T11:19:45;22.60;99.70
569;DHT22;269;48.884;9.192;2022-09-09T11:22:21;22.00;99.90
569;DHT22;269;48.884;9.192;2022-09-09T11:24:52;21.20;99.90
569;DHT22;269;48.884;9.192;2022-09-09T11:27:23;20.10;99.90
569;DHT22;269;48.884;9.192;2022-09-09T11:30:04;19.20;99.90
569;DHT22;269;48.884;9.192;2022-09-09T11:32:50;18.40;99.90
569;DHT22;269;48.884;9.192;2022-09-09T11:35:33;18.00;99.90
569;DHT22;269;48.884;9.192;2022-09-09T11:38:19;17.80;99.90
569;DHT22;269;48.884;9.192;2022-09-09T11:40:55;17.70;99.90
569;DHT22;269;48.884;9.192;2022-09-09T11:43:27;17.70;99.90
569;DHT22;269;48.884;9.192;2022-09-09T11:45:56;17.70;99.90
569;DHT22;269;48.884;9.192;2022-09-09T11:48:31;17.70;99.90
569;DHT22;269;48.884;9.192;2022-09-09T11:51:02;17.90;99.90
569;DHT22;269;48.884;9.192;2022-09-09T11:53:31;18.00;99.90
569;DHT22;269;48.884;9.192;2022-09-09T11:56:07;18.20;99.90
569;DHT22;269;48.884;9.192;2022-09-09T11:58:44;18.40;99.90
569;DHT22;269;48.884;9.192;2022-09-09T12:07:01;19.00;99.90
569;DHT22;269;48.884;9.192;2022-09-09T12:09:33;19.40;99.90
569;DHT22;269;48.884;9.192;2022-09-09T12:17:42;20.10;99.90
569;DHT22;269;48.884;9.192;2022-09-09T12:20:14;20.60;99.90
569;DHT22;269;48.884;9.192;2022-09-09T12:23:00;20.90;99.90
569;DHT22;269;48.884;9.192;2022-09-09T12:25:41;21.30;99.90
569;DHT22;269;48.884;9.192;2022-09-09T12:28:17;21.80;99.90
569;DHT22;269;48.884;9.192;2022-09-09T12:30:49;22.50;99.90
569;DHT22;269;48.884;9.192;2022-09-09T12:33:20;23.00;99.90
569;DHT22;269;48.884;9.192;2022-09-09T12:35:52;23.50;99.90
569;DHT22;269;48.884;9.192;2022-09-09T12:38:25;23.50;99.90
569;DHT22;269;48.884;9.192;2022-09-09T12:40:55;23.40;99.90
569;DHT22;269;48.884;9.192;2022-09-09T12:43:25;23.20;99.90
569;DHT22;269;48.884;9.192;2022-09-09T12:45:56;23.50;99.90
569;DHT22;269;48.884;9.192;2022-09-09T12:48:29;23.80;99.90
569;DHT22;269;48.884;9.192;2022-09-09T12:50:58;23.80;99.30
569;DHT22;269;48.884;9.192;2022-09-09T12:53:29;23.60;99.30
569;DHT22;269;48.884;9.192;2022-09-09T12:55:58;23.20;98.90
569;DHT22;269;48.884;9.192;2022-09-09T12:58:26;22.70;99.90
569;DHT22;269;48.884;9.192;2022-09-09T13:00:59;22.90;99.90
569;DHT22;269;48.884;9.192;2022-09-09T13:03:27;23.10;99.90
569;DHT22;269;48.884;9.192;2022-09-09T13:06:10;23.40;99.00
569;DHT22;269;48.884;9.192;2022-09-09T13:08:37;23.80;98.00
569;DHT22;269;48.884;9.192;2022-09-09T13:11:09;24.10;97.10
569;DHT22;269;48.884;9.192;2022-09-09T13:13:38;24.20;97.20
569;DHT22;269;48.884;9.192;2022-09-09T13:16:16;24.40;96.80
569;DHT22;269;48.884;9.192;2022-09-09T13:18:45;24.50;97.20
569;DHT22;269;48.884;9.192;2022-09-09T13:21:13;24.60;97.00
569;DHT22;269;48.884;9.192;2022-09-09T13:23:41;24.50;96.20
569;DHT22;269;48.884;9.192;2022-09-09T13:26:21;24.80;96.70
569;DHT22;269;48.884;9.192;2022-09-09T13:28:48;25.30;96.10
569;DHT22;269;48.884;9.192;2022-09-09T13:31:21;25.70;95.50
569;DHT22;269;48.884;9.192;2022-09-09T13:33:48;26.20;94.40
569;DHT22;269;48.884;9.192;2022-09-09T13:36:28;26.20;93.20
569;DHT22;269;48.884;9.192;2022-09-09T13:38:57;26.10;92.00
569;DHT22;269;48.884;9.192;2022-09-09T13:41:29;26.10;92.10
569;DHT22;269;48.884;9.192;2022-09-09T13:43:57;26.10;91.10
569;DHT22;269;48.884;9.192;2022-09-09T13:46:30;26.30;90.70
569;DHT22;269;48.884;9.192;2022-09-09T13:48:59;26.50;90.90
569;DHT22;269;48.884;9.192;2022-09-09T13:51:34;26.70;88.90
569;DHT22;269;48.884;9.192;2022-09-09T13:54:03;26.30;87.80
569;DHT22;269;48.884;9.192;2022-09-09T13:56:31;26.00;89.90
569;DHT22;269;48.884;9.192;2022-09-09T13:58:58;25.50;88.30
569;DHT22;269;48.884;9.192;2022-09-09T14:01:25;25.10;89.60
569;DHT22;269;48.884;9.192;2022-09-09T14:03:53;24.90;90.10
569;DHT22;269;48.884;9.192;2022-09-09T14:06:20;24.70;89.10
569;DHT22;269;48.884;9.192;2022-09-09T14:08:50;25.00;89.60
569;DHT22;269;48.884;9.192;2022-09-09T14:11:18;25.40;87.00
569;DHT22;269;48.884;9.192;2022-09-09T14:13:45;25.90;86.70
569;DHT22;269;48.884;9.192;2022-09-09T14:16:12;26.30;84.70
569;DHT22;269;48.884;9.192;2022-09-09T14:18:39;26.00;84.40
569;DHT22;269;48.884;9.192;2022-09-09T14:21:08;25.60;86.50
569;DHT22;269;48.884;9.192;2022-09-09T14:23:35;24.90;87.40
569;DHT22;269;48.884;9.192;2022-09-09T14:26:05;25.00;86.40
569;DHT22;269;48.884;9.192;2022-09-09T14:28:33;25.40;85.60
569;DHT22;269;48.884;9.192;2022-09-09T14:31:01;26.10;83.90
569;DHT22;269;48.884;9.192;2022-09-09T14:33:29;26.60;82.20
569;DHT22;269;48.884;9.192;2022-09-09T14:35:57;27.10;80.80
569;DHT22;269;48.884;9.192;2022-09-09T14:38:28;26.80;80.40
569;DHT22;269;48.884;9.192;2022-09-09T14:40:55;26.00;81.60
569;DHT22;269;48.884;9.192;2022-09-09T14:43:25;25.40;83.40
569;DHT22;269;48.884;9.192;2022-09-09T14:45:53;24.60;84.70
569;DHT22;269;48.884;9.192;2022-09-09T14:48:20;24.00;86.40
569;DHT22;269;48.884;9.192;2022-09-09T14:50:47;23.80;88.80
569;DHT22;269;48.884;9.192;2022-09-09T14:53:16;23.50;87.60
569;DHT22;269;48.884;9.192;2022-09-09T14:55:43;23.30;88.00
569;DHT22;269;48.884;9.192;2022-09-09T14:58:12;23.00;88.50
569;DHT22;269;48.884;9.192;2022-09-09T15:00:41;22.80;89.50
569;DHT22;269;48.884;9.192;2022-09-09T15:03:09;22.70;90.00
569;DHT22;269;48.884;9.192;2022-09-09T15:05:36;22.60;90.30
569;DHT22;269;48.884;9.192;2022-09-09T15:08:03;22.60;90.60
569;DHT22;269;48.884;9.192;2022-09-09T15:10:30;22.50;90.80
569;DHT22;269;48.884;9.192;2022-09-09T15:12:57;22.50;90.70
569;DHT22;269;48.884;9.192;2022-09-09T15:15:24;22.60;90.30
569;DHT22;269;48.884;9.192;2022-09-09T15:17:53;22.70;90.00
569;DHT22;269;48.884;9.192;2022-09-09T15:20:20;22.70;89.80
569;DHT22;269;48.884;9.192;2022-09-09T15:22:47;22.60;91.20
569;DHT22;269;48.884;9.192;2022-09-09T15:25:16;22.50;91.70
569;DHT22;269;48.884;9.192;2022-09-09T15:27:44;22.50;91.50
569;DHT22;269;48.884;9.192;2022-09-09T15:30:12;22.50;91.00
569;DHT22;269;48.884;9.192;2022-09-09T15:32:38;22.30;90.10
569;DHT22;269;48.884;9.192;2022-09-09T15:35:07;22.20;90.20
569;DHT22;269;48.884;9.192;2022-09-09T15:37:34;22.10;90.00
569;DHT22;269;48.884;9.192;2022-09-09T15:40:02;22.40;90.10
569;DHT22;269;48.884;9.192;2022-09-09T15:42:29;22.30;90.10
569;DHT22;269;48.884;9.192;2022-09-09T15:44:56;22.30;90.20
569;DHT22;269;48.884;9.192;2022-09-09T15:47:24;22.30;89.90
569;DHT22;269;48.884;9.192;2022-09-09T15:49:52;22.20;90.10
569;DHT22;269;48.884;9.192;2022-09-09T15:52:21;22.30;90.30
569;DHT22;269;48.884;9.192;2022-09-09T15:54:47;21.90;90.30
569;DHT22;269;48.884;9.192;2022-09-09T15:57:15;21.80;90.70
569;DHT22;269;48.884;9.192;2022-09-09T15:59:42;21.70;90.80
569;DHT22;269;48.884;9.192;2022-09-09T16:02:10;21.60;91.10
569;DHT22;269;48.884;9.192;2022-09-09T16:04:38;21.50;91.30
569;DHT22;269;48.884;9.192;2022-09-09T16:07:06;21.40;91.40
569;DHT22;269;48.884;9.192;2022-09-09T16:09:34;21.30;91.80
569;DHT22;269;48.884;9.192;2022-09-09T16:12:03;21.30;92.10
569;DHT22;269;48.884;9.192;2022-09-09T16:14:33;21.40;92.40
569;DHT22;269;48.884;9.192;2022-09-09T16:17:01;21.30;92.60
569;DHT22;269;48.884;9.192;2022-09-09T16:19:28;21.30;92.90
569;DHT22;269;48.884;9.192;2022-09-09T16:21:56;21.30;93.10
569;DHT22;269;48.884;9.192;2022-09-09T16:24:23;21.30;93.40
569;DHT22;269;48.884;9.192;2022-09-09T16:26:53;21.50;93.80
569;DHT22;269;48.884;9.192;2022-09-09T16:29:21;21.00;94.30
569;DHT22;269;48.884;9.192;2022-09-09T16:31:48;20.50;92.90
569;DHT22;269;48.884;9.192;2022-09-09T16:34:17;20.10;93.00
569;DHT22;269;48.884;9.192;2022-09-09T16:36:44;19.80;94.90
569;DHT22;269;48.884;9.192;2022-09-09T16:39:13;19.20;99.90
569;DHT22;269;48.884;9.192;2022-09-09T16:41:42;18.60;99.90
569;DHT22;269;48.884;9.192;2022-09-09T16:44:12;18.10;99.90
569;DHT22;269;48.884;9.192;2022-09-09T16:46:40;17.80;99.90
569;DHT22;269;48.884;9.192;2022-09-09T16:49:09;17.50;99.90
569;DHT22;269;48.884;9.192;2022-09-09T16:51:38;17.30;99.90
569;DHT22;269;48.884;9.192;2022-09-09T16:54:07;17.20;99.90
569;DHT22;269;48.884;9.192;2022-09-09T16:56:37;17.10;99.90
569;DHT22;269;48.884;9.192;2022-09-09T16:59:08;17.10;99.90
569;DHT22;269;48.884;9.192;2022-09-09T17:01:39;17.00;99.90
569;DHT22;269;48.884;9.192;2022-09-09T17:04:08;17.00;99.90
569;DHT22;269;48.884;9.192;2022-09-09T17:06:35;17.10;99.90
569;DHT22;269;48.884;9.192;2022-09-09T17:09:05;17.10;99.90
569;DHT22;269;48.884;9.192;2022-09-09T17:11:33;17.10;99.90